sensor_id;sensor_type;location;lat;lon;timestamp;P1;durP1;ratioP1;P2;durP2;ratioP2
8564;SDS011;4320;51.498;6.556;2022-07-26T00:01:59;2.65;;;1.30;;
8564;SDS011;4320;51.498;6.556;2022-07-26T00:04:25;4.15;;;1.73;;
8564;SDS011;4320;51.498;6.556;2022-07-26T00:06:52;5.35;;;1.73;;
8564;SDS011;4320;51.498;6.556;2022-07-26T00:09:17;3.20;;;1.80;;
8564;SDS011;4320;51.498;6.556;2022-07-26T00:11:43;4.18;;;1.50;;
8564;SDS011;4320;51.498;6.556;2022-07-26T00:14:09;5.25;;;1.92;;
8564;SDS011;4320;51.498;6.556;2022-07-26T00:16:35;4.45;;;1.80;;
8564;SDS011;4320;51.498;6.556;2022-07-26T00:19:01;1.67;;;1.50;;
8564;SDS011;4320;51.498;6.556;2022-07-26T00:21:27;3.88;;;1.67;;
8564;SDS011;4320;51.498;6.556;2022-07-26T00:23:54;5.10;;;1.70;;
8564;SDS011;4320;51.498;6.556;2022-07-26T00:26:21;3.53;;;1.60;;
8564;SDS011;4320;51.498;6.556;2022-07-26T00:28:46;2.90;;;1.80;;
8564;SDS011;4320;51.498;6.556;2022-07-26T00:31:12;3.78;;;1.90;;
8564;SDS011;4320;51.498;6.556;2022-07-26T00:33:38;5.35;;;1.92;;
8564;SDS011;4320;51.498;6.556;2022-07-26T00:36:04;3.38;;;1.55;;
8564;SDS011;4320;51.498;6.556;2022-07-26T00:38:30;3.47;;;1.80;;
8564;SDS011;4320;51.498;6.556;2022-07-26T00:40:56;5.50;;;1.55;;
8564;SDS011;4320;51.498;6.556;2022-07-26T00:43:21;3.25;;;1.58;;
8564;SDS011;4320;51.498;6.556;2022-07-26T00:45:47;5.25;;;1.60;;
8564;SDS011;4320;51.498;6.556;2022-07-26T00:48:14;4.13;;;1.88;;
8564;SDS011;4320;51.498;6.556;2022-07-26T00:50:40;4.90;;;1.70;;
8564;SDS011;4320;51.498;6.556;2022-07-26T00:53:06;4.35;;;1.80;;
8564;SDS011;4320;51.498;6.556;2022-07-26T00:55:32;7.20;;;2.05;;
8564;SDS011;4320;51.498;6.556;2022-07-26T00:57:58;3.88;;;1.95;;
8564;SDS011;4320;51.498;6.556;2022-07-26T01:00:25;5.32;;;2.05;;
8564;SDS011;4320;51.498;6.556;2022-07-26T01:02:52;4.78;;;2.22;;
8564;SDS011;4320;51.498;6.556;2022-07-26T01:05:21;4.05;;;2.25;;
8564;SDS011;4320;51.498;6.556;2022-07-26T01:07:48;4.75;;;2.30;;
8564;SDS011;4320;51.498;6.556;2022-07-26T01:10:14;7.72;;;2.70;;
8564;SDS011;4320;51.498;6.556;2022-07-26T01:12:40;5.95;;;2.50;;
8564;SDS011;4320;51.498;6.556;2022-07-26T01:15:07;4.05;;;2.38;;
8564;SDS011;4320;51.498;6.556;2022-07-26T01:17:34;5.10;;;2.55;;
8564;SDS011;4320;51.498;6.556;2022-07-26T01:20:00;6.38;;;2.53;;
8564;SDS011;4320;51.498;6.556;2022-07-26T01:22:26;6.70;;;2.65;;
8564;SDS011;4320;51.498;6.556;2022-07-26T01:24:52;5.07;;;2.60;;
8564;SDS011;4320;51.498;6.556;2022-07-26T01:27:18;5.20;;;2.50;;
8564;SDS011;4320;51.498;6.556;2022-07-26T01:29:44;10.07;;;2.60;;
8564;SDS011;4320;51.498;6.556;2022-07-26T01:32:09;4.70;;;2.58;;
8564;SDS011;4320;51.498;6.556;2022-07-26T01:34:35;7.20;;;2.67;;
8564;SDS011;4320;51.498;6.556;2022-07-26T01:37:01;4.13;;;2.35;;
8564;SDS011;4320;51.498;6.556;2022-07-26T01:39:27;5.05;;;2.88;;
8564;SDS011;4320;51.498;6.556;2022-07-26T01:41:54;8.05;;;2.90;;
8564;SDS011;4320;51.498;6.556;2022-07-26T01:44:21;4.53;;;2.67;;
8564;SDS011;4320;51.498;6.556;2022-07-26T01:46:47;6.15;;;2.58;;
8564;SDS011;4320;51.498;6.556;2022-07-26T01:49:12;5.55;;;2.67;;
8564;SDS011;4320;51.498;6.556;2022-07-26T01:51:38;5.80;;;2.53;;
8564;SDS011;4320;51.498;6.556;2022-07-26T01:54:04;4.80;;;2.65;;
8564;SDS011;4320;51.498;6.556;2022-07-26T01:56:30;5.10;;;2.53;;
8564;SDS011;4320;51.498;6.556;2022-07-26T01:58:56;6.05;;;2.45;;
8564;SDS011;4320;51.498;6.556;2022-07-26T02:01:21;6.78;;;2.85;;
8564;SDS011;4320;51.498;6.556;2022-07-26T02:03:47;5.30;;;2.85;;
8564;SDS011;4320;51.498;6.556;2022-07-26T02:06:13;8.25;;;2.80;;
8564;SDS011;4320;51.498;6.556;2022-07-26T02:08:38;7.90;;;2.72;;
8564;SDS011;4320;51.498;6.556;2022-07-26T02:11:04;9.65;;;3.00;;
8564;SDS011;4320;51.498;6.556;2022-07-26T02:16:00;3.88;;;2.25;;
8564;SDS011;4320;51.498;6.556;2022-07-26T02:18:29;3.83;;;2.20;;
8564;SDS011;4320;51.498;6.556;2022-07-26T02:20:55;4.57;;;2.33;;
8564;SDS011;4320;51.498;6.556;2022-07-26T02:23:23;7.47;;;2.40;;
8564;SDS011;4320;51.498;6.556;2022-07-26T02:25:50;6.13;;;2.00;;
8564;SDS011;4320;51.498;6.556;2022-07-26T02:28:16;9.15;;;2.20;;
8564;SDS011;4320;51.498;6.556;2022-07-26T02:30:42;7.20;;;2.28;;
8564;SDS011;4320;51.498;6.556;2022-07-26T02:33:08;4.68;;;2.20;;
8564;SDS011;4320;51.498;6.556;2022-07-26T02:35:34;5.93;;;2.10;;
8564;SDS011;4320;51.498;6.556;2022-07-26T02:38:01;5.38;;;2.00;;
8564;SDS011;4320;51.498;6.556;2022-07-26T02:40:28;6.13;;;2.47;;
8564;SDS011;4320;51.498;6.556;2022-07-26T02:42:53;6.78;;;2.40;;
8564;SDS011;4320;51.498;6.556;2022-07-26T02:45:19;8.52;;;2.53;;
8564;SDS011;4320;51.498;6.556;2022-07-26T02:47:46;5.75;;;2.50;;
8564;SDS011;4320;51.498;6.556;2022-07-26T02:50:14;5.75;;;2.83;;
8564;SDS011;4320;51.498;6.556;2022-07-26T02:52:40;5.85;;;2.42;;
8564;SDS011;4320;51.498;6.556;2022-07-26T02:55:06;5.20;;;2.53;;
8564;SDS011;4320;51.498;6.556;2022-07-26T02:57:32;5.93;;;2.83;;
8564;SDS011;4320;51.498;6.556;2022-07-26T02:59:58;5.43;;;2.55;;
8564;SDS011;4320;51.498;6.556;2022-07-26T03:02:23;6.25;;;2.42;;
8564;SDS011;4320;51.498;6.556;2022-07-26T03:04:49;8.63;;;2.60;;
8564;SDS011;4320;51.498;6.556;2022-07-26T03:07:14;6.43;;;2.65;;
8564;SDS011;4320;51.498;6.556;2022-07-26T03:09:40;6.60;;;2.70;;
8564;SDS011;4320;51.498;6.556;2022-07-26T03:12:06;6.40;;;2.83;;
8564;SDS011;4320;51.498;6.556;2022-07-26T03:14:32;7.45;;;3.78;;
8564;SDS011;4320;51.498;6.556;2022-07-26T03:16:57;8.05;;;3.00;;
8564;SDS011;4320;51.498;6.556;2022-07-26T03:19:23;7.38;;;2.65;;
8564;SDS011;4320;51.498;6.556;2022-07-26T03:21:49;7.95;;;3.30;;
8564;SDS011;4320;51.498;6.556;2022-07-26T03:24:14;6.90;;;3.05;;
8564;SDS011;4320;51.498;6.556;2022-07-26T03:26:40;10.00;;;2.85;;
8564;SDS011;4320;51.498;6.556;2022-07-26T03:29:05;7.65;;;2.75;;
8564;SDS011;4320;51.498;6.556;2022-07-26T03:31:31;9.60;;;2.90;;
8564;SDS011;4320;51.498;6.556;2022-07-26T03:33:57;4.90;;;2.17;;
8564;SDS011;4320;51.498;6.556;2022-07-26T03:36:22;12.60;;;2.88;;
8564;SDS011;4320;51.498;6.556;2022-07-26T03:38:48;12.40;;;2.90;;
8564;SDS011;4320;51.498;6.556;2022-07-26T03:41:13;6.22;;;2.85;;
8564;SDS011;4320;51.498;6.556;2022-07-26T03:43:39;6.70;;;2.95;;
8564;SDS011;4320;51.498;6.556;2022-07-26T03:46:05;9.05;;;2.92;;
8564;SDS011;4320;51.498;6.556;2022-07-26T03:48:31;8.55;;;2.70;;
8564;SDS011;4320;51.498;6.556;2022-07-26T03:50:56;7.97;;;2.88;;
8564;SDS011;4320;51.498;6.556;2022-07-26T03:53:22;8.63;;;3.13;;
8564;SDS011;4320;51.498;6.556;2022-07-26T03:55:48;7.13;;;2.72;;
8564;SDS011;4320;51.498;6.556;2022-07-26T03:58:32;6.28;;;2.97;;
8564;SDS011;4320;51.498;6.556;2022-07-26T04:00:58;10.32;;;3.30;;
8564;SDS011;4320;51.498;6.556;2022-07-26T04:03:24;6.50;;;2.97;;
8564;SDS011;4320;51.498;6.556;2022-07-26T04:05:49;6.63;;;2.72;;
8564;SDS011;4320;51.498;6.556;2022-07-26T04:08:15;5.13;;;2.50;;
8564;SDS011;4320;51.498;6.556;2022-07-26T04:10:45;9.68;;;2.70;;
8564;SDS011;4320;51.498;6.556;2022-07-26T04:13:11;9.93;;;3.33;;
8564;SDS011;4320;51.498;6.556;2022-07-26T04:15:37;9.45;;;3.00;;
8564;SDS011;4320;51.498;6.556;2022-07-26T04:18:03;7.03;;;2.88;;
8564;SDS011;4320;51.498;6.556;2022-07-26T04:20:29;6.32;;;2.40;;
8564;SDS011;4320;51.498;6.556;2022-07-26T04:22:54;10.07;;;3.05;;
8564;SDS011;4320;51.498;6.556;2022-07-26T04:25:20;9.02;;;3.08;;
8564;SDS011;4320;51.498;6.556;2022-07-26T04:27:46;9.45;;;2.92;;
8564;SDS011;4320;51.498;6.556;2022-07-26T04:30:11;6.38;;;2.63;;
8564;SDS011;4320;51.498;6.556;2022-07-26T04:32:37;6.38;;;2.30;;
8564;SDS011;4320;51.498;6.556;2022-07-26T04:35:03;6.13;;;3.05;;
8564;SDS011;4320;51.498;6.556;2022-07-26T04:37:29;4.28;;;2.58;;
8564;SDS011;4320;51.498;6.556;2022-07-26T04:39:56;10.23;;;3.17;;
8564;SDS011;4320;51.498;6.556;2022-07-26T04:42:22;5.18;;;2.53;;
8564;SDS011;4320;51.498;6.556;2022-07-26T04:44:48;7.20;;;2.65;;
8564;SDS011;4320;51.498;6.556;2022-07-26T04:47:14;10.63;;;2.60;;
8564;SDS011;4320;51.498;6.556;2022-07-26T04:49:39;6.68;;;2.78;;
8564;SDS011;4320;51.498;6.556;2022-07-26T04:52:05;7.80;;;2.78;;
8564;SDS011;4320;51.498;6.556;2022-07-26T04:54:30;5.97;;;2.83;;
8564;SDS011;4320;51.498;6.556;2022-07-26T04:56:56;4.60;;;2.97;;
8564;SDS011;4320;51.498;6.556;2022-07-26T04:59:22;8.15;;;2.60;;
8564;SDS011;4320;51.498;6.556;2022-07-26T05:01:47;6.53;;;2.47;;
8564;SDS011;4320;51.498;6.556;2022-07-26T05:04:13;9.45;;;2.90;;
8564;SDS011;4320;51.498;6.556;2022-07-26T05:06:39;7.43;;;2.92;;
8564;SDS011;4320;51.498;6.556;2022-07-26T05:09:04;9.65;;;2.50;;
8564;SDS011;4320;51.498;6.556;2022-07-26T05:11:30;7.97;;;2.67;;
8564;SDS011;4320;51.498;6.556;2022-07-26T05:13:56;5.65;;;2.67;;
8564;SDS011;4320;51.498;6.556;2022-07-26T05:16:21;6.20;;;2.85;;
8564;SDS011;4320;51.498;6.556;2022-07-26T05:18:47;9.68;;;2.42;;
8564;SDS011;4320;51.498;6.556;2022-07-26T05:21:12;7.47;;;2.88;;
8564;SDS011;4320;51.498;6.556;2022-07-26T05:23:38;5.07;;;2.45;;
8564;SDS011;4320;51.498;6.556;2022-07-26T05:26:04;7.18;;;2.53;;
8564;SDS011;4320;51.498;6.556;2022-07-26T05:28:30;7.25;;;2.60;;
8564;SDS011;4320;51.498;6.556;2022-07-26T05:30:55;6.32;;;3.08;;
8564;SDS011;4320;51.498;6.556;2022-07-26T05:33:21;5.85;;;3.00;;
8564;SDS011;4320;51.498;6.556;2022-07-26T05:35:46;9.95;;;3.42;;
8564;SDS011;4320;51.498;6.556;2022-07-26T05:38:12;7.82;;;2.97;;
8564;SDS011;4320;51.498;6.556;2022-07-26T05:40:38;9.65;;;3.20;;
8564;SDS011;4320;51.498;6.556;2022-07-26T05:43:03;9.68;;;2.90;;
8564;SDS011;4320;51.498;6.556;2022-07-26T05:45:29;9.23;;;3.13;;
8564;SDS011;4320;51.498;6.556;2022-07-26T05:47:55;11.95;;;3.25;;
8564;SDS011;4320;51.498;6.556;2022-07-26T05:50:21;8.60;;;3.10;;
8564;SDS011;4320;51.498;6.556;2022-07-26T05:52:46;9.65;;;2.85;;
8564;SDS011;4320;51.498;6.556;2022-07-26T05:55:12;7.88;;;3.38;;
8564;SDS011;4320;51.498;6.556;2022-07-26T05:57:38;7.72;;;3.22;;
8564;SDS011;4320;51.498;6.556;2022-07-26T06:00:08;10.40;;;3.25;;
8564;SDS011;4320;51.498;6.556;2022-07-26T06:02:34;9.05;;;3.30;;
8564;SDS011;4320;51.498;6.556;2022-07-26T06:04:59;9.88;;;3.50;;
8564;SDS011;4320;51.498;6.556;2022-07-26T06:07:25;8.80;;;3.53;;
8564;SDS011;4320;51.498;6.556;2022-07-26T06:09:51;9.30;;;3.67;;
8564;SDS011;4320;51.498;6.556;2022-07-26T06:12:16;10.90;;;3.50;;
8564;SDS011;4320;51.498;6.556;2022-07-26T06:14:42;8.25;;;3.22;;
8564;SDS011;4320;51.498;6.556;2022-07-26T06:17:08;10.13;;;3.47;;
8564;SDS011;4320;51.498;6.556;2022-07-26T06:19:34;10.32;;;3.60;;
8564;SDS011;4320;51.498;6.556;2022-07-26T06:21:59;11.07;;;3.97;;
8564;SDS011;4320;51.498;6.556;2022-07-26T06:24:25;7.63;;;3.00;;
8564;SDS011;4320;51.498;6.556;2022-07-26T06:26:51;7.80;;;3.55;;
8564;SDS011;4320;51.498;6.556;2022-07-26T06:29:19;8.85;;;3.50;;
8564;SDS011;4320;51.498;6.556;2022-07-26T06:31:45;8.07;;;3.03;;
8564;SDS011;4320;51.498;6.556;2022-07-26T06:34:11;11.65;;;3.47;;
8564;SDS011;4320;51.498;6.556;2022-07-26T06:36:36;9.20;;;3.25;;
8564;SDS011;4320;51.498;6.556;2022-07-26T06:39:02;8.95;;;3.40;;
8564;SDS011;4320;51.498;6.556;2022-07-26T06:41:28;6.93;;;3.25;;
8564;SDS011;4320;51.498;6.556;2022-07-26T06:43:53;10.10;;;4.38;;
8564;SDS011;4320;51.498;6.556;2022-07-26T06:46:19;7.28;;;3.47;;
8564;SDS011;4320;51.498;6.556;2022-07-26T06:48:45;5.10;;;3.60;;
8564;SDS011;4320;51.498;6.556;2022-07-26T06:51:11;6.63;;;3.22;;
8564;SDS011;4320;51.498;6.556;2022-07-26T06:53:37;7.78;;;3.72;;
8564;SDS011;4320;51.498;6.556;2022-07-26T06:56:03;10.25;;;3.70;;
8564;SDS011;4320;51.498;6.556;2022-07-26T06:58:29;9.70;;;4.07;;
8564;SDS011;4320;51.498;6.556;2022-07-26T07:00:55;14.07;;;3.60;;
8564;SDS011;4320;51.498;6.556;2022-07-26T07:03:21;9.38;;;3.92;;
8564;SDS011;4320;51.498;6.556;2022-07-26T07:05:46;10.25;;;3.60;;
8564;SDS011;4320;51.498;6.556;2022-07-26T07:08:13;10.40;;;3.50;;
8564;SDS011;4320;51.498;6.556;2022-07-26T07:10:38;15.35;;;4.30;;
8564;SDS011;4320;51.498;6.556;2022-07-26T07:13:05;12.63;;;3.75;;
8564;SDS011;4320;51.498;6.556;2022-07-26T07:15:30;8.52;;;3.97;;
8564;SDS011;4320;51.498;6.556;2022-07-26T07:17:56;11.70;;;3.78;;
8564;SDS011;4320;51.498;6.556;2022-07-26T07:20:22;8.95;;;3.13;;
8564;SDS011;4320;51.498;6.556;2022-07-26T07:22:47;9.38;;;3.88;;
8564;SDS011;4320;51.498;6.556;2022-07-26T07:25:13;8.40;;;3.70;;
8564;SDS011;4320;51.498;6.556;2022-07-26T07:27:39;10.35;;;3.80;;
8564;SDS011;4320;51.498;6.556;2022-07-26T07:30:04;10.65;;;3.67;;
8564;SDS011;4320;51.498;6.556;2022-07-26T07:32:32;8.52;;;3.33;;
8564;SDS011;4320;51.498;6.556;2022-07-26T07:34:57;7.68;;;3.85;;
8564;SDS011;4320;51.498;6.556;2022-07-26T07:37:23;14.30;;;3.78;;
8564;SDS011;4320;51.498;6.556;2022-07-26T07:39:49;6.65;;;3.35;;
8564;SDS011;4320;51.498;6.556;2022-07-26T07:42:14;8.90;;;3.60;;
8564;SDS011;4320;51.498;6.556;2022-07-26T07:44:40;8.00;;;3.53;;
8564;SDS011;4320;51.498;6.556;2022-07-26T07:47:06;7.85;;;3.67;;
8564;SDS011;4320;51.498;6.556;2022-07-26T07:49:33;10.93;;;3.30;;
8564;SDS011;4320;51.498;6.556;2022-07-26T07:51:59;8.07;;;3.70;;
8564;SDS011;4320;51.498;6.556;2022-07-26T07:54:24;9.50;;;3.53;;
8564;SDS011;4320;51.498;6.556;2022-07-26T07:56:50;7.60;;;3.22;;
8564;SDS011;4320;51.498;6.556;2022-07-26T07:59:17;7.05;;;3.63;;
8564;SDS011;4320;51.498;6.556;2022-07-26T08:01:42;8.93;;;3.90;;
8564;SDS011;4320;51.498;6.556;2022-07-26T08:04:08;6.85;;;3.38;;
8564;SDS011;4320;51.498;6.556;2022-07-26T08:06:34;7.50;;;4.30;;
8564;SDS011;4320;51.498;6.556;2022-07-26T08:09:00;9.65;;;3.55;;
8564;SDS011;4320;51.498;6.556;2022-07-26T08:11:26;6.50;;;3.78;;
8564;SDS011;4320;51.498;6.556;2022-07-26T08:13:51;8.02;;;3.78;;
8564;SDS011;4320;51.498;6.556;2022-07-26T08:16:17;5.55;;;3.20;;
8564;SDS011;4320;51.498;6.556;2022-07-26T08:18:43;9.32;;;4.00;;
8564;SDS011;4320;51.498;6.556;2022-07-26T08:21:08;9.52;;;3.40;;
8564;SDS011;4320;51.498;6.556;2022-07-26T08:23:34;5.63;;;3.80;;
8564;SDS011;4320;51.498;6.556;2022-07-26T08:26:00;6.43;;;3.75;;
8564;SDS011;4320;51.498;6.556;2022-07-26T08:28:25;5.20;;;3.78;;
8564;SDS011;4320;51.498;6.556;2022-07-26T08:30:51;6.05;;;3.38;;
8564;SDS011;4320;51.498;6.556;2022-07-26T08:33:17;9.60;;;4.35;;
8564;SDS011;4320;51.498;6.556;2022-07-26T08:35:43;6.15;;;3.72;;
8564;SDS011;4320;51.498;6.556;2022-07-26T08:38:09;4.80;;;3.83;;
8564;SDS011;4320;51.498;6.556;2022-07-26T08:40:34;8.68;;;4.13;;
8564;SDS011;4320;51.498;6.556;2022-07-26T08:43:00;6.45;;;4.40;;
8564;SDS011;4320;51.498;6.556;2022-07-26T08:45:27;6.90;;;4.18;;
8564;SDS011;4320;51.498;6.556;2022-07-26T08:47:54;5.78;;;3.92;;
8564;SDS011;4320;51.498;6.556;2022-07-26T08:50:21;7.63;;;4.70;;
8564;SDS011;4320;51.498;6.556;2022-07-26T08:52:47;5.43;;;4.25;;
8564;SDS011;4320;51.498;6.556;2022-07-26T08:55:15;5.38;;;4.50;;
8564;SDS011;4320;51.498;6.556;2022-07-26T08:57:43;8.98;;;5.00;;
8564;SDS011;4320;51.498;6.556;2022-07-26T09:00:22;7.30;;;5.00;;
8564;SDS011;4320;51.498;6.556;2022-07-26T09:02:50;5.47;;;4.80;;
8564;SDS011;4320;51.498;6.556;2022-07-26T09:05:17;6.45;;;4.80;;
8564;SDS011;4320;51.498;6.556;2022-07-26T09:07:44;4.70;;;4.05;;
8564;SDS011;4320;51.498;6.556;2022-07-26T09:10:14;4.78;;;3.83;;
8564;SDS011;4320;51.498;6.556;2022-07-26T09:12:40;5.50;;;3.67;;
8564;SDS011;4320;51.498;6.556;2022-07-26T09:15:16;6.65;;;3.88;;
8564;SDS011;4320;51.498;6.556;2022-07-26T09:17:44;5.68;;;3.83;;
8564;SDS011;4320;51.498;6.556;2022-07-26T09:20:16;6.63;;;3.70;;
8564;SDS011;4320;51.498;6.556;2022-07-26T09:25:24;13.60;;;3.80;;
8564;SDS011;4320;51.498;6.556;2022-07-26T09:27:51;8.52;;;3.78;;
8564;SDS011;4320;51.498;6.556;2022-07-26T09:30:18;4.85;;;3.85;;
8564;SDS011;4320;51.498;6.556;2022-07-26T09:32:58;5.55;;;3.13;;
8564;SDS011;4320;51.498;6.556;2022-07-26T09:35:26;6.47;;;3.50;;
8564;SDS011;4320;51.498;6.556;2022-07-26T09:37:53;4.60;;;3.00;;
8564;SDS011;4320;51.498;6.556;2022-07-26T09:40:19;4.25;;;3.28;;
8564;SDS011;4320;51.498;6.556;2022-07-26T09:42:55;7.85;;;3.30;;
8564;SDS011;4320;51.498;6.556;2022-07-26T09:45:22;4.20;;;2.78;;
8564;SDS011;4320;51.498;6.556;2022-07-26T09:47:48;3.72;;;3.17;;
8564;SDS011;4320;51.498;6.556;2022-07-26T09:50:15;7.32;;;2.92;;
8564;SDS011;4320;51.498;6.556;2022-07-26T09:55:23;3.30;;;2.85;;
8564;SDS011;4320;51.498;6.556;2022-07-26T09:57:50;5.13;;;2.67;;
8564;SDS011;4320;51.498;6.556;2022-07-26T10:00:16;2.90;;;1.98;;
8564;SDS011;4320;51.498;6.556;2022-07-26T10:02:42;3.15;;;1.63;;
8564;SDS011;4320;51.498;6.556;2022-07-26T10:05:08;2.20;;;1.73;;
8564;SDS011;4320;51.498;6.556;2022-07-26T10:07:34;3.55;;;1.70;;
8564;SDS011;4320;51.498;6.556;2022-07-26T10:10:12;3.10;;;1.88;;
8564;SDS011;4320;51.498;6.556;2022-07-26T10:12:40;2.97;;;1.60;;
8564;SDS011;4320;51.498;6.556;2022-07-26T10:18:09;3.92;;;1.73;;
8564;SDS011;4320;51.498;6.556;2022-07-26T10:20:55;2.80;;;1.40;;
8564;SDS011;4320;51.498;6.556;2022-07-26T10:26:02;1.58;;;1.20;;
8564;SDS011;4320;51.498;6.556;2022-07-26T10:28:30;1.38;;;1.08;;
8564;SDS011;4320;51.498;6.556;2022-07-26T10:33:48;0.90;;;0.90;;
8564;SDS011;4320;51.498;6.556;2022-07-26T10:36:32;1.60;;;1.20;;
8564;SDS011;4320;51.498;6.556;2022-07-26T10:44:16;1.20;;;1.10;;
8564;SDS011;4320;51.498;6.556;2022-07-26T10:46:56;0.98;;;0.85;;
8564;SDS011;4320;51.498;6.556;2022-07-26T10:49:36;0.80;;;0.80;;
8564;SDS011;4320;51.498;6.556;2022-07-26T11:00:02;1.65;;;1.15;;
8564;SDS011;4320;51.498;6.556;2022-07-26T11:02:41;1.83;;;0.90;;
8564;SDS011;4320;51.498;6.556;2022-07-26T11:05:14;1.77;;;0.90;;
8564;SDS011;4320;51.498;6.556;2022-07-26T11:07:51;1.17;;;0.70;;
8564;SDS011;4320;51.498;6.556;2022-07-26T11:10:36;1.27;;;0.80;;
8564;SDS011;4320;51.498;6.556;2022-07-26T11:13:07;2.05;;;1.15;;
8564;SDS011;4320;51.498;6.556;2022-07-26T11:15:39;2.47;;;0.98;;
8564;SDS011;4320;51.498;6.556;2022-07-26T11:18:11;0.70;;;0.70;;
8564;SDS011;4320;51.498;6.556;2022-07-26T11:20:40;1.65;;;0.85;;
8564;SDS011;4320;51.498;6.556;2022-07-26T11:26:00;0.90;;;0.90;;
8564;SDS011;4320;51.498;6.556;2022-07-26T11:28:25;1.00;;;0.90;;
8564;SDS011;4320;51.498;6.556;2022-07-26T11:30:55;3.30;;;0.93;;
8564;SDS011;4320;51.498;6.556;2022-07-26T11:33:36;0.80;;;0.80;;
8564;SDS011;4320;51.498;6.556;2022-07-26T11:36:03;0.80;;;0.80;;
8564;SDS011;4320;51.498;6.556;2022-07-26T11:38:53;0.77;;;0.73;;
8564;SDS011;4320;51.498;6.556;2022-07-26T11:41:23;1.30;;;0.80;;
8564;SDS011;4320;51.498;6.556;2022-07-26T11:43:52;1.02;;;0.80;;
8564;SDS011;4320;51.498;6.556;2022-07-26T11:46:18;1.85;;;0.90;;
8564;SDS011;4320;51.498;6.556;2022-07-26T11:48:50;0.93;;;0.70;;
8564;SDS011;4320;51.498;6.556;2022-07-26T11:51:18;1.50;;;0.70;;
8564;SDS011;4320;51.498;6.556;2022-07-26T11:53:48;1.35;;;0.90;;
8564;SDS011;4320;51.498;6.556;2022-07-26T11:56:16;0.95;;;0.90;;
8564;SDS011;4320;51.498;6.556;2022-07-26T11:58:45;0.90;;;0.88;;
8564;SDS011;4320;51.498;6.556;2022-07-26T12:01:14;1.35;;;0.90;;
8564;SDS011;4320;51.498;6.556;2022-07-26T12:03:42;0.90;;;0.90;;
8564;SDS011;4320;51.498;6.556;2022-07-26T12:06:11;2.38;;;1.08;;
8564;SDS011;4320;51.498;6.556;2022-07-26T12:08:43;1.98;;;0.93;;
8564;SDS011;4320;51.498;6.556;2022-07-26T12:11:11;3.17;;;1.00;;
8564;SDS011;4320;51.498;6.556;2022-07-26T12:13:54;1.20;;;0.90;;
8564;SDS011;4320;51.498;6.556;2022-07-26T12:16:36;0.98;;;0.80;;
8564;SDS011;4320;51.498;6.556;2022-07-26T12:19:07;1.05;;;0.82;;
8564;SDS011;4320;51.498;6.556;2022-07-26T12:21:45;1.95;;;0.90;;
8564;SDS011;4320;51.498;6.556;2022-07-26T12:29:46;0.93;;;0.90;;
8564;SDS011;4320;51.498;6.556;2022-07-26T12:32:14;0.98;;;0.80;;
8564;SDS011;4320;51.498;6.556;2022-07-26T12:34:53;1.05;;;0.90;;
8564;SDS011;4320;51.498;6.556;2022-07-26T12:37:20;1.45;;;0.93;;
8564;SDS011;4320;51.498;6.556;2022-07-26T12:42:27;3.55;;;1.13;;
8564;SDS011;4320;51.498;6.556;2022-07-26T12:44:57;2.22;;;0.80;;
8564;SDS011;4320;51.498;6.556;2022-07-26T12:47:24;1.73;;;1.00;;
8564;SDS011;4320;51.498;6.556;2022-07-26T12:49:50;2.13;;;0.90;;
8564;SDS011;4320;51.498;6.556;2022-07-26T12:52:17;1.58;;;1.00;;
8564;SDS011;4320;51.498;6.556;2022-07-26T12:54:45;1.95;;;1.08;;
8564;SDS011;4320;51.498;6.556;2022-07-26T12:57:12;3.70;;;1.08;;
8564;SDS011;4320;51.498;6.556;2022-07-26T12:59:39;2.85;;;1.30;;
8564;SDS011;4320;51.498;6.556;2022-07-26T13:02:05;1.38;;;1.00;;
8564;SDS011;4320;51.498;6.556;2022-07-26T13:04:31;2.47;;;1.27;;
8564;SDS011;4320;51.498;6.556;2022-07-26T13:06:57;2.13;;;1.13;;
8564;SDS011;4320;51.498;6.556;2022-07-26T13:09:23;2.55;;;1.05;;
8564;SDS011;4320;51.498;6.556;2022-07-26T13:11:49;1.90;;;1.02;;
8564;SDS011;4320;51.498;6.556;2022-07-26T13:14:15;2.08;;;1.10;;
8564;SDS011;4320;51.498;6.556;2022-07-26T13:16:41;1.67;;;1.20;;
8564;SDS011;4320;51.498;6.556;2022-07-26T13:19:06;3.00;;;1.02;;
8564;SDS011;4320;51.498;6.556;2022-07-26T13:21:32;1.88;;;0.98;;
8564;SDS011;4320;51.498;6.556;2022-07-26T13:23:58;2.10;;;1.20;;
8564;SDS011;4320;51.498;6.556;2022-07-26T13:26:23;2.40;;;1.10;;
8564;SDS011;4320;51.498;6.556;2022-07-26T13:28:49;1.95;;;1.13;;
8564;SDS011;4320;51.498;6.556;2022-07-26T13:31:15;4.25;;;1.20;;
8564;SDS011;4320;51.498;6.556;2022-07-26T13:33:41;3.28;;;1.33;;
8564;SDS011;4320;51.498;6.556;2022-07-26T13:36:06;1.35;;;1.25;;
8564;SDS011;4320;51.498;6.556;2022-07-26T13:38:32;2.13;;;1.20;;
8564;SDS011;4320;51.498;6.556;2022-07-26T13:40:59;1.52;;;1.00;;
8564;SDS011;4320;51.498;6.556;2022-07-26T13:43:26;2.63;;;1.10;;
8564;SDS011;4320;51.498;6.556;2022-07-26T13:45:52;1.52;;;1.00;;
8564;SDS011;4320;51.498;6.556;2022-07-26T13:48:18;1.77;;;0.90;;
8564;SDS011;4320;51.498;6.556;2022-07-26T13:50:44;0.90;;;0.90;;
8564;SDS011;4320;51.498;6.556;2022-07-26T13:53:10;1.35;;;1.10;;
8564;SDS011;4320;51.498;6.556;2022-07-26T13:55:35;3.42;;;1.10;;
8564;SDS011;4320;51.498;6.556;2022-07-26T13:58:01;1.17;;;0.80;;
8564;SDS011;4320;51.498;6.556;2022-07-26T14:00:27;1.52;;;0.82;;
8564;SDS011;4320;51.498;6.556;2022-07-26T14:02:54;2.28;;;0.75;;
8564;SDS011;4320;51.498;6.556;2022-07-26T14:05:21;2.83;;;1.17;;
8564;SDS011;4320;51.498;6.556;2022-07-26T14:07:47;2.65;;;1.00;;
8564;SDS011;4320;51.498;6.556;2022-07-26T14:10:14;2.63;;;1.05;;
8564;SDS011;4320;51.498;6.556;2022-07-26T14:12:39;1.45;;;1.00;;
8564;SDS011;4320;51.498;6.556;2022-07-26T14:15:05;1.52;;;0.93;;
8564;SDS011;4320;51.498;6.556;2022-07-26T14:17:33;1.20;;;1.00;;
8564;SDS011;4320;51.498;6.556;2022-07-26T14:19:59;1.38;;;0.80;;
8564;SDS011;4320;51.498;6.556;2022-07-26T14:22:25;1.83;;;0.75;;
8564;SDS011;4320;51.498;6.556;2022-07-26T14:24:51;1.35;;;1.00;;
8564;SDS011;4320;51.498;6.556;2022-07-26T14:27:16;2.80;;;0.90;;
8564;SDS011;4320;51.498;6.556;2022-07-26T14:29:42;2.30;;;0.95;;
8564;SDS011;4320;51.498;6.556;2022-07-26T14:32:10;1.20;;;0.90;;
8564;SDS011;4320;51.498;6.556;2022-07-26T14:34:36;2.65;;;0.98;;
8564;SDS011;4320;51.498;6.556;2022-07-26T14:37:02;1.45;;;0.80;;
8564;SDS011;4320;51.498;6.556;2022-07-26T14:39:27;1.33;;;1.00;;
8564;SDS011;4320;51.498;6.556;2022-07-26T14:41:53;3.20;;;1.10;;
8564;SDS011;4320;51.498;6.556;2022-07-26T14:44:19;1.63;;;1.00;;
8564;SDS011;4320;51.498;6.556;2022-07-26T14:46:47;3.15;;;0.75;;
8564;SDS011;4320;51.498;6.556;2022-07-26T14:49:13;2.20;;;1.10;;
8564;SDS011;4320;51.498;6.556;2022-07-26T14:51:39;3.50;;;1.35;;
8564;SDS011;4320;51.498;6.556;2022-07-26T14:54:04;1.25;;;0.90;;
8564;SDS011;4320;51.498;6.556;2022-07-26T14:56:30;1.50;;;0.70;;
8564;SDS011;4320;51.498;6.556;2022-07-26T14:58:56;2.85;;;1.15;;
8564;SDS011;4320;51.498;6.556;2022-07-26T15:01:22;2.03;;;1.00;;
8564;SDS011;4320;51.498;6.556;2022-07-26T15:03:48;4.65;;;1.25;;
8564;SDS011;4320;51.498;6.556;2022-07-26T15:06:14;1.67;;;1.10;;
8564;SDS011;4320;51.498;6.556;2022-07-26T15:08:40;5.15;;;1.35;;
8564;SDS011;4320;51.498;6.556;2022-07-26T15:11:06;4.57;;;1.20;;
8564;SDS011;4320;51.498;6.556;2022-07-26T15:13:32;5.32;;;1.30;;
8564;SDS011;4320;51.498;6.556;2022-07-26T15:15:58;3.92;;;1.20;;
8564;SDS011;4320;51.498;6.556;2022-07-26T15:18:24;2.80;;;1.20;;
8564;SDS011;4320;51.498;6.556;2022-07-26T15:20:50;1.88;;;1.20;;
8564;SDS011;4320;51.498;6.556;2022-07-26T15:23:16;2.03;;;1.20;;
8564;SDS011;4320;51.498;6.556;2022-07-26T15:25:41;3.63;;;1.45;;
8564;SDS011;4320;51.498;6.556;2022-07-26T15:28:08;3.85;;;1.45;;
8564;SDS011;4320;51.498;6.556;2022-07-26T15:30:34;7.05;;;1.30;;
8564;SDS011;4320;51.498;6.556;2022-07-26T15:33:00;2.90;;;1.30;;
8564;SDS011;4320;51.498;6.556;2022-07-26T15:35:27;1.05;;;1.00;;
8564;SDS011;4320;51.498;6.556;2022-07-26T15:37:53;4.00;;;1.52;;
8564;SDS011;4320;51.498;6.556;2022-07-26T15:40:19;1.95;;;1.20;;
8564;SDS011;4320;51.498;6.556;2022-07-26T15:42:45;3.33;;;1.45;;
8564;SDS011;4320;51.498;6.556;2022-07-26T15:45:13;4.72;;;1.58;;
8564;SDS011;4320;51.498;6.556;2022-07-26T15:47:39;2.13;;;1.50;;
8564;SDS011;4320;51.498;6.556;2022-07-26T15:50:06;3.85;;;1.65;;
8564;SDS011;4320;51.498;6.556;2022-07-26T15:52:37;5.35;;;1.40;;
8564;SDS011;4320;51.498;6.556;2022-07-26T15:55:05;3.03;;;1.58;;